Time;durP1;ratioP1;P1;durP2;ratioP2;P2;SDS_P1;SDS_P2;PMS_P1;PMS_P2;Temp;Humidity;BMP_temperature;BMP_pressure;BME280_temperature;BME280_humidity;BME280_pressure;Samples;Min_cycle;Max_cycle;Signal;HPM_P1;HPM_P2
2021/06/10 00:00:17;;;;;;;3.00;2.08;;;22.60;59.00;;;;;;10436954;28;20068;-60
2021/06/10 00:05:22;;;;;;;2.53;2.03;;;22.60;59.00;;;;;;10421132;28;20033;-60
2021/06/10 00:10:25;;;;;;;2.20;1.85;;;22.60;59.00;;;;;;10411195;28;20022;-60
2021/06/10 00:15:31;;;;;;;2.45;2.08;;;22.50;58.90;;;;;;10416872;28;20414;-60
2021/06/10 00:20:36;;;;;;;3.13;2.38;;;22.60;58.90;;;;;;10420984;28;20061;-60
2021/06/10 00:25:37;;;;;;;3.67;2.17;;;22.50;58.80;;;;;;10420582;28;20033;-60
2021/06/10 00:30:38;;;;;;;3.38;1.70;;;22.50;58.70;;;;;;10419284;28;20032;-60
2021/06/10 00:35:39;;;;;;;2.08;1.88;;;22.50;58.70;;;;;;10418787;28;20025;-60
2021/06/10 00:40:40;;;;;;;2.00;1.80;;;22.50;58.70;;;;;;10420112;28;20037;-59
2021/06/10 00:45:41;;;;;;;2.08;1.70;;;22.50;58.70;;;;;;10428702;28;20080;-59
2021/06/10 00:50:45;;;;;;;2.72;2.13;;;22.50;58.60;;;;;;10418568;28;20030;-60
2021/06/10 00:55:56;;;;;;;2.20;1.90;;;22.50;58.70;;;;;;10419519;28;20141;-60
2021/06/10 01:00:58;;;;;;;3.05;2.10;;;22.50;58.50;;;;;;10419173;28;20025;-60
2021/06/10 01:06:06;;;;;;;1.80;1.65;;;22.50;58.50;;;;;;10417321;28;20138;-60
2021/06/10 01:11:37;;;;;;;2.05;1.80;;;22.50;58.40;;;;;;10417774;28;20053;-60
2021/06/10 01:16:43;;;;;;;3.28;2.15;;;22.50;58.50;;;;;;10418851;28;20490;-60
2021/06/10 01:21:44;;;;;;;2.17;1.83;;;22.40;58.40;;;;;;10417594;28;20041;-60
2021/06/10 01:27:01;;;;;;;2.33;1.67;;;22.40;58.30;;;;;;10418350;28;20033;-59
2021/06/10 01:32:02;;;;;;;2.97;2.47;;;22.40;58.40;;;;;;10418088;28;20095;-60
2021/06/10 01:37:04;;;;;;;3.85;1.90;;;22.40;58.20;;;;;;10416438;28;20032;-60
2021/06/10 01:42:10;;;;;;;2.42;1.88;;;22.40;58.30;;;;;;10413336;28;20040;-60
2021/06/10 01:47:11;;;;;;;4.43;2.03;;;22.40;58.10;;;;;;10416322;28;20473;-60
2021/06/10 01:52:13;;;;;;;2.42;1.77;;;22.40;58.10;;;;;;10416209;28;20025;-60
2021/06/10 01:57:14;;;;;;;2.47;1.75;;;22.40;58.00;;;;;;10415877;28;20037;-60
2021/06/10 02:02:15;;;;;;;2.22;2.00;;;22.40;58.00;;;;;;10416564;28;20025;-60
2021/06/10 02:07:18;;;;;;;2.30;1.70;;;22.40;57.90;;;;;;10415421;28;20500;-60
2021/06/10 02:12:19;;;;;;;2.20;1.77;;;22.30;57.80;;;;;;10403287;28;20041;-58
2021/06/10 02:17:20;;;;;;;3.33;1.60;;;22.30;57.70;;;;;;10414547;28;20025;-60
2021/06/10 02:22:20;;;;;;;4.65;1.98;;;22.30;57.70;;;;;;10415863;28;20084;-60
2021/06/10 02:27:21;;;;;;;4.20;1.73;;;22.30;57.70;;;;;;10415953;28;20037;-60
2021/06/10 02:32:22;;;;;;;2.22;1.58;;;22.30;57.70;;;;;;10415460;28;20071;-60
2021/06/10 02:37:25;;;;;;;2.70;1.40;;;22.30;57.60;;;;;;10415560;28;20045;-60
2021/06/10 02:42:27;;;;;;;2.28;1.60;;;22.30;57.60;;;;;;10422353;28;20087;-60
2021/06/10 02:47:28;;;;;;;2.63;1.83;;;22.30;57.60;;;;;;10413895;28;20030;-60
2021/06/10 02:52:29;;;;;;;2.97;2.08;;;22.30;57.60;;;;;;10397427;28;20429;-60
2021/06/10 02:57:31;;;;;;;2.63;2.13;;;22.20;57.50;;;;;;10413497;28;20065;-60
2021/06/10 03:02:36;;;;;;;3.67;2.08;;;22.20;57.40;;;;;;10412925;28;20033;-60
2021/06/10 03:07:37;;;;;;;2.40;1.70;;;22.20;57.40;;;;;;10412705;28;20104;-60
2021/06/10 03:12:40;;;;;;;2.35;1.58;;;22.20;57.40;;;;;;10398333;28;20022;-60
2021/06/10 03:17:42;;;;;;;2.47;1.77;;;22.20;57.40;;;;;;10412177;28;20026;-60
2021/06/10 03:22:43;;;;;;;3.75;2.33;;;22.20;57.30;;;;;;10414363;28;20033;-60
2021/06/10 03:27:45;;;;;;;3.78;2.00;;;22.20;57.30;;;;;;10418604;28;20038;-60
2021/06/10 03:32:47;;;;;;;2.70;2.33;;;22.20;57.40;;;;;;10421088;28;20021;-60
2021/06/10 03:37:48;;;;;;;2.38;1.55;;;22.20;57.20;;;;;;10421124;28;20034;-60
2021/06/10 03:42:51;;;;;;;2.50;1.67;;;22.20;57.30;;;;;;10431347;28;20045;-59
2021/06/10 03:47:53;;;;;;;2.47;1.90;;;22.10;57.00;;;;;;10420818;28;20026;-59
2021/06/10 03:52:53;;;;;;;3.10;1.88;;;22.10;57.10;;;;;;10420734;28;20106;-60
2021/06/10 03:57:54;;;;;;;2.45;1.70;;;22.10;57.10;;;;;;10420576;28;20112;-60
2021/06/10 04:02:59;;;;;;;1.77;1.60;;;22.10;57.10;;;;;;10420782;28;20440;-60
2021/06/10 04:08:00;;;;;;;2.60;1.85;;;22.10;57.80;;;;;;10418308;28;20037;-59
2021/06/10 04:13:00;;;;;;;3.05;2.05;;;22.10;57.00;;;;;;10407128;28;20100;-60
2021/06/10 04:18:01;;;;;;;3.10;1.55;;;22.10;57.00;;;;;;10427410;28;20056;-60
2021/06/10 04:23:02;;;;;;;1.83;1.52;;;22.10;57.10;;;;;;10418913;28;20064;-60
2021/06/10 04:28:03;;;;;;;6.93;2.00;;;22.10;57.00;;;;;;10419121;28;20026;-60
2021/06/10 04:33:04;;;;;;;2.42;1.42;;;22.00;56.90;;;;;;10419662;28;20030;-60
2021/06/10 04:38:06;;;;;;;2.17;1.65;;;22.10;57.00;;;;;;10419640;28;20172;-60
2021/06/10 04:43:07;;;;;;;4.43;1.95;;;22.00;57.00;;;;;;10427831;28;20037;-61
2021/06/10 04:48:08;;;;;;;3.15;1.60;;;22.00;57.10;;;;;;10419560;28;20029;-61
2021/06/10 04:53:09;;;;;;;3.53;1.90;;;22.00;57.80;;;;;;10419585;28;20540;-60
2021/06/10 04:58:09;;;;;;;4.28;1.83;;;22.10;58.70;;;;;;10419031;28;20053;-58
2021/06/10 05:03:10;;;;;;;3.65;1.83;;;22.10;58.80;;;;;;10418667;28;20048;-60
2021/06/10 05:08:11;;;;;;;2.92;1.63;;;22.10;59.10;;;;;;10417723;28;20459;-59
2021/06/10 05:13:11;;;;;;;4.68;1.70;;;22.10;59.40;;;;;;10417959;28;20060;-57
2021/06/10 05:18:12;;;;;;;4.00;1.90;;;22.20;60.10;;;;;;10417243;28;20140;-58
2021/06/10 05:23:13;;;;;;;5.10;2.13;;;22.20;60.10;;;;;;10417518;28;20029;-57
2021/06/10 05:28:14;;;;;;;3.47;1.65;;;22.20;60.20;;;;;;10417647;28;20060;-61
2021/06/10 05:33:14;;;;;;;3.28;1.75;;;22.20;60.20;;;;;;10416768;28;20432;-64
2021/06/10 05:38:15;;;;;;;8.23;2.63;;;22.20;60.20;;;;;;10417278;28;20045;-59
2021/06/10 05:43:16;;;;;;;6.85;2.53;;;22.20;60.30;;;;;;10423524;28;20486;-62
2021/06/10 05:48:18;;;;;;;13.38;3.50;;;22.20;60.40;;;;;;10415602;28;20025;-62
2021/06/10 05:53:18;;;;;;;9.10;3.05;;;22.20;60.10;;;;;;10417096;28;20343;-63
2021/06/10 05:58:19;;;;;;;8.80;2.65;;;22.20;60.30;;;;;;10416429;28;20060;-61
2021/06/10 06:03:20;;;;;;;6.93;2.95;;;22.20;60.30;;;;;;10414757;28;20424;-61
2021/06/10 06:08:20;;;;;;;7.40;2.45;;;22.20;60.40;;;;;;10415166;28;20073;-62
2021/06/10 06:13:24;;;;;;;7.03;3.25;;;22.20;60.10;;;;;;10412276;28;20104;-63
2021/06/10 06:18:25;;;;;;;16.10;3.20;;;22.10;60.30;;;;;;10413302;28;20037;-63
2021/06/10 06:23:28;;;;;;;5.30;3.20;;;22.20;60.80;;;;;;10409226;28;20033;-63
2021/06/10 06:28:29;;;;;;;5.60;2.58;;;22.10;60.20;;;;;;10400326;28;20053;-63
2021/06/10 06:33:30;;;;;;;5.70;2.45;;;22.10;60.30;;;;;;10406833;28;20459;-63
2021/06/10 06:38:30;;;;;;;8.90;2.58;;;22.10;60.50;;;;;;10410290;28;20455;-63
2021/06/10 06:43:32;;;;;;;4.65;3.03;;;22.10;60.30;;;;;;10424131;28;20397;-63
2021/06/10 06:48:37;;;;;;;4.28;2.53;;;22.10;60.20;;;;;;10414516;28;20109;-63
2021/06/10 06:53:37;;;;;;;5.13;2.47;;;22.10;60.10;;;;;;10414167;28;20061;-62
2021/06/10 06:58:38;;;;;;;5.63;3.70;;;22.10;59.90;;;;;;10413880;28;20067;-63
2021/06/10 07:03:39;;;;;;;5.40;3.72;;;22.10;59.90;;;;;;10414319;28;20108;-63
2021/06/10 07:08:39;;;;;;;5.78;3.45;;;22.10;59.90;;;;;;10413194;28;20104;-63
2021/06/10 07:13:40;;;;;;;5.95;3.50;;;22.20;59.90;;;;;;10401499;28;20037;-63
2021/06/10 07:18:41;;;;;;;4.63;3.00;;;22.20;59.80;;;;;;10414057;28;20374;-63
2021/06/10 07:23:42;;;;;;;4.03;2.50;;;22.20;59.90;;;;;;10413970;28;20393;-63
2021/06/10 07:28:42;;;;;;;4.00;2.60;;;22.20;60.00;;;;;;10413890;28;20072;-64
2021/06/10 07:33:43;;;;;;;5.28;3.42;;;22.20;59.90;;;;;;10412660;28;20029;-63
2021/06/10 07:38:44;;;;;;;3.88;2.67;;;22.20;59.60;;;;;;10413752;28;20064;-63
2021/06/10 07:43:44;;;;;;;4.45;3.13;;;22.20;59.50;;;;;;10421805;28;20049;-63
2021/06/10 07:48:45;;;;;;;5.70;2.38;;;22.20;59.40;;;;;;10413157;28;20616;-63
2021/06/10 07:53:46;;;;;;;3.75;2.70;;;22.20;59.50;;;;;;10413299;28;20033;-63
2021/06/10 07:58:46;;;;;;;4.65;2.55;;;22.30;59.20;;;;;;10413270;28;20029;-64
2021/06/10 08:03:47;;;;;;;4.35;2.33;;;22.30;59.10;;;;;;10413041;28;20040;-63
2021/06/10 08:08:49;;;;;;;3.33;2.20;;;22.30;59.40;;;;;;10413319;28;20041;-63
2021/06/10 08:13:50;;;;;;;3.38;1.92;;;22.30;59.40;;;;;;10409860;28;20022;-63
2021/06/10 08:18:51;;;;;;;2.33;1.92;;;22.30;59.30;;;;;;10420537;28;20124;-64
2021/06/10 08:23:52;;;;;;;3.35;2.22;;;22.30;59.40;;;;;;10429563;28;20121;-63
2021/06/10 08:28:52;;;;;;;5.85;2.53;;;22.30;59.10;;;;;;10419085;28;20028;-64
2021/06/10 08:33:53;;;;;;;4.15;1.80;;;22.30;58.90;;;;;;10420048;28;20031;-64
2021/06/10 08:38:54;;;;;;;4.18;1.80;;;22.30;59.30;;;;;;10418351;28;20108;-63
2021/06/10 08:43:57;;;;;;;4.72;2.42;;;22.30;59.10;;;;;;10427839;28;20565;-63
2021/06/10 08:48:58;;;;;;;2.15;1.88;;;22.30;59.10;;;;;;10419112;28;20067;-64
2021/06/10 08:53:59;;;;;;;3.15;2.42;;;22.30;59.40;;;;;;10419184;28;20527;-64
2021/06/10 08:59:00;;;;;;;2.42;1.98;;;22.30;59.30;;;;;;10417304;28;20029;-63
2021/06/10 09:04:01;;;;;;;3.67;2.30;;;22.40;59.50;;;;;;10417546;28;20037;-63
2021/06/10 09:09:02;;;;;;;3.92;2.00;;;22.40;59.40;;;;;;10417168;28;20495;-64
2021/06/10 09:14:09;;;;;;;4.43;2.60;;;22.40;59.40;;;;;;10415869;28;20025;-63
2021/06/10 09:19:14;;;;;;;2.85;1.95;;;22.40;59.30;;;;;;10418055;28;20040;-63
2021/06/10 09:24:29;;;;;;;3.92;3.33;;;22.40;59.20;;;;;;10417143;28;20057;-63
2021/06/10 09:29:36;;;;;;;5.05;2.65;;;22.40;59.10;;;;;;10418085;28;20108;-64
2021/06/10 09:34:43;;;;;;;3.22;2.22;;;22.40;59.20;;;;;;10417979;28;20095;-64
2021/06/10 09:39:53;;;;;;;3.25;2.45;;;22.40;59.10;;;;;;10416254;28;20037;-64
2021/06/10 09:44:57;;;;;;;3.65;2.13;;;22.40;59.00;;;;;;10426267;28;20107;-63
2021/06/10 09:50:29;;;;;;;3.50;2.00;;;22.40;58.80;;;;;;10417449;28;20029;-63
2021/06/10 09:55:32;;;;;;;4.07;2.45;;;22.40;59.20;;;;;;10417425;28;20061;-64
2021/06/10 10:00:33;;;;;;;4.22;2.40;;;22.40;59.10;;;;;;10416125;28;20079;-63
2021/06/10 10:05:33;;;;;;;3.25;2.95;;;22.40;59.00;;;;;;10422505;28;20071;-64
2021/06/10 10:10:34;;;;;;;3.50;2.30;;;22.40;59.10;;;;;;10404821;28;20500;-63
2021/06/10 10:15:37;;;;;;;5.07;2.67;;;22.40;59.00;;;;;;10398795;28;20029;-63
2021/06/10 10:20:40;;;;;;;5.05;2.80;;;22.40;58.90;;;;;;10414243;28;20037;-63
2021/06/10 10:25:41;;;;;;;4.90;2.92;;;22.50;58.90;;;;;;10413654;28;20105;-63
2021/06/10 10:30:45;;;;;;;2.95;2.38;;;22.50;59.10;;;;;;10415542;28;20029;-64
2021/06/10 10:36:01;;;;;;;3.22;2.58;;;22.50;59.20;;;;;;10415163;28;20409;-64
2021/06/10 10:41:11;;;;;;;4.07;2.13;;;22.50;59.40;;;;;;10417614;28;20025;-64
2021/06/10 10:46:20;;;;;;;4.18;2.72;;;22.50;59.50;;;;;;10420038;28;20038;-64
2021/06/10 10:51:38;;;;;;;3.83;2.65;;;22.50;59.30;;;;;;10414857;28;20036;-63
2021/06/10 10:56:43;;;;;;;3.80;2.25;;;22.50;58.80;;;;;;10414736;28;20033;-63
2021/06/10 11:02:05;;;;;;;2.78;2.25;;;22.50;59.30;;;;;;10414554;28;20034;-63
2021/06/10 11:07:26;;;;;;;2.58;2.38;;;22.60;59.40;;;;;;10414290;28;20030;-63
2021/06/10 11:12:43;;;;;;;3.17;2.65;;;22.60;59.40;;;;;;10413068;28;20109;-63
2021/06/10 11:17:45;;;;;;;3.25;2.58;;;22.60;59.50;;;;;;10414371;28;20083;-63
2021/06/10 11:22:51;;;;;;;4.57;2.80;;;22.60;59.40;;;;;;10412792;28;20029;-63
2021/06/10 11:28:05;;;;;;;3.65;2.53;;;22.60;59.40;;;;;;10412788;28;20091;-63
2021/06/10 11:33:18;;;;;;;3.72;2.80;;;22.60;59.40;;;;;;10413969;28;20112;-63
2021/06/10 11:38:24;;;;;;;3.00;2.60;;;22.70;59.40;;;;;;10413632;28;20087;-63
2021/06/10 11:43:25;;;;;;;4.03;2.70;;;22.70;59.40;;;;;;10422452;28;20045;-64
2021/06/10 11:48:51;;;;;;;3.30;2.83;;;22.70;59.40;;;;;;10417803;28;20120;-64
2021/06/10 11:54:03;;;;;;;2.90;2.20;;;22.70;59.30;;;;;;10421609;28;20377;-63
2021/06/10 11:59:23;;;;;;;3.20;2.40;;;22.70;59.20;;;;;;10421772;28;20037;-63
2021/06/10 12:04:32;;;;;;;3.63;3.00;;;22.70;59.10;;;;;;10420023;28;20037;-63
2021/06/10 12:09:33;;;;;;;3.75;2.30;;;22.70;59.00;;;;;;10421241;28;20018;-63
2021/06/10 12:14:39;;;;;;;2.58;2.28;;;22.80;59.10;;;;;;10420913;28;20035;-63
2021/06/10 12:19:40;;;;;;;3.50;2.42;;;22.80;59.00;;;;;;10420778;28;20033;-64
2021/06/10 12:24:44;;;;;;;3.75;2.58;;;22.80;58.90;;;;;;10420886;28;20069;-63
2021/06/10 12:29:52;;;;;;;6.97;2.40;;;22.80;58.90;;;;;;10419914;28;20053;-64
2021/06/10 12:34:54;;;;;;;2.40;2.20;;;22.80;58.90;;;;;;10420053;28;20036;-63
2021/06/10 12:40:00;;;;;;;3.72;2.15;;;22.80;59.00;;;;;;10418811;28;20033;-63
2021/06/10 12:45:00;;;;;;;3.25;2.50;;;22.90;58.90;;;;;;10428389;28;20038;-63
2021/06/10 12:50:01;;;;;;;3.47;2.65;;;22.90;58.70;;;;;;10419694;28;20116;-63
2021/06/10 12:55:04;;;;;;;2.95;2.35;;;22.90;58.70;;;;;;10434610;28;20072;-63
2021/06/10 13:00:13;;;;;;;4.65;2.67;;;22.90;58.70;;;;;;10419062;28;20060;-63
2021/06/10 13:05:16;;;;;;;4.18;2.35;;;22.90;58.70;;;;;;10418135;28;20087;-63
2021/06/10 13:10:38;;;;;;;3.85;2.78;;;22.90;58.50;;;;;;10417887;28;20022;-63
2021/06/10 13:15:41;;;;;;;3.60;2.80;;;23.00;58.50;;;;;;10418745;28;20147;-63
2021/06/10 13:21:14;;;;;;;3.88;2.97;;;23.00;59.30;;;;;;10418399;28;20029;-63
2021/06/10 13:26:32;;;;;;;3.83;2.75;;;23.00;58.30;;;;;;10418452;28;20471;-63
2021/06/10 13:31:43;;;;;;;3.55;2.65;;;23.00;58.60;;;;;;10418181;28;20485;-63
2021/06/10 13:37:02;;;;;;;4.10;2.60;;;23.00;58.50;;;;;;10418126;28;20095;-63
2021/06/10 13:42:04;;;;;;;2.97;2.40;;;23.00;58.40;;;;;;10426011;28;20025;-63
2021/06/10 13:47:04;;;;;;;3.63;2.60;;;23.00;58.60;;;;;;10415770;28;20053;-64
2021/06/10 13:52:06;;;;;;;3.38;2.47;;;23.00;58.50;;;;;;10417330;28;20083;-64
2021/06/10 13:57:07;;;;;;;3.42;2.80;;;23.00;58.40;;;;;;10399302;28;20405;-63
2021/06/10 14:02:08;;;;;;;3.65;2.90;;;23.00;58.40;;;;;;10416838;28;20470;-63
2021/06/10 14:07:09;;;;;;;3.22;2.47;;;23.00;58.30;;;;;;10416508;28;20069;-63
2021/06/10 14:12:10;;;;;;;2.60;2.30;;;23.00;58.40;;;;;;10414623;28;20105;-63
2021/06/10 14:17:11;;;;;;;2.83;2.47;;;23.00;58.30;;;;;;10416039;28;20040;-63
2021/06/10 14:22:12;;;;;;;3.85;2.60;;;23.00;58.30;;;;;;10415977;28;20037;-63
2021/06/10 14:27:17;;;;;;;3.95;2.58;;;23.00;57.90;;;;;;10431025;28;20132;-63
2021/06/10 14:32:19;;;;;;;2.70;2.50;;;23.00;58.00;;;;;;10415620;28;20056;-63
2021/06/10 14:37:20;;;;;;;3.25;2.63;;;23.00;58.00;;;;;;10415626;28;20035;-63
2021/06/10 14:42:20;;;;;;;3.42;3.13;;;23.00;57.70;;;;;;10424263;28;20117;-63
2021/06/10 14:47:22;;;;;;;2.70;2.20;;;23.00;57.90;;;;;;10414980;28;20090;-63
2021/06/10 14:52:23;;;;;;;4.53;2.53;;;23.00;57.90;;;;;;10415025;28;20110;-64
2021/06/10 14:57:24;;;;;;;3.28;2.35;;;23.00;57.70;;;;;;10414713;28;20049;-63
2021/06/10 15:02:24;;;;;;;3.97;2.33;;;23.00;57.60;;;;;;10414762;28;20109;-63
2021/06/10 15:07:25;;;;;;;3.95;2.47;;;23.00;57.70;;;;;;10413275;28;20448;-63
2021/06/10 15:12:26;;;;;;;3.42;3.03;;;23.00;57.80;;;;;;10414298;28;20699;-63
2021/06/10 15:17:27;;;;;;;2.95;2.35;;;23.00;57.40;;;;;;10414149;28;20112;-63
2021/06/10 15:22:27;;;;;;;3.65;2.95;;;23.00;57.70;;;;;;10412322;28;20069;-63
2021/06/10 15:27:28;;;;;;;3.30;2.70;;;23.00;57.00;;;;;;10413867;28;20038;-63
2021/06/10 15:32:29;;;;;;;3.25;2.67;;;23.00;57.00;;;;;;10414122;28;20064;-63
2021/06/10 15:37:30;;;;;;;2.60;2.40;;;22.90;57.30;;;;;;10413487;28;20108;-62
2021/06/10 15:42:30;;;;;;;2.78;1.70;;;23.00;57.60;;;;;;10419621;28;20128;-63
2021/06/10 15:47:32;;;;;;;3.00;2.38;;;22.90;57.70;;;;;;10412579;28;20026;-63
2021/06/10 15:52:32;;;;;;;3.17;2.40;;;23.00;57.70;;;;;;10413630;28;20371;-64
2021/06/10 15:57:34;;;;;;;2.83;2.22;;;22.90;57.60;;;;;;10413621;28;20033;-63
2021/06/10 16:02:34;;;;;;;2.97;2.33;;;22.90;56.90;;;;;;10413293;28;20482;-63
2021/06/10 16:07:35;;;;;;;2.80;1.88;;;22.90;57.20;;;;;;10399553;28;20064;-63
2021/06/10 16:12:36;;;;;;;4.80;2.58;;;22.90;57.40;;;;;;10413429;28;20108;-63
2021/06/10 16:17:38;;;;;;;7.60;2.67;;;23.00;57.50;;;;;;10411833;28;20034;-58
2021/06/10 16:22:40;;;;;;;8.35;2.70;;;23.00;58.40;;;;;;10413097;28;20030;-61
2021/06/10 16:27:43;;;;;;;2.83;2.03;;;23.00;59.30;;;;;;10411721;28;20026;-64
2021/06/10 16:32:44;;;;;;;3.58;1.88;;;23.00;58.90;;;;;;10413278;28;20036;-66
2021/06/10 16:37:45;;;;;;;2.97;2.08;;;23.00;57.70;;;;;;10419485;28;20132;-66
2021/06/10 16:42:46;;;;;;;3.25;1.80;;;23.00;58.10;;;;;;10421944;28;20128;-66
2021/06/10 16:47:47;;;;;;;2.05;1.67;;;23.00;58.20;;;;;;10417776;28;20033;-66
2021/06/10 16:52:48;;;;;;;3.25;2.10;;;23.00;58.40;;;;;;10416639;28;20040;-66
2021/06/10 16:57:49;;;;;;;2.40;2.00;;;23.00;58.20;;;;;;10419377;28;20503;-66
2021/06/10 17:07:54;;;;;;;2.65;1.52;;;23.00;58.30;;;;;;10417568;28;20044;-66
2021/06/10 17:12:55;;;;;;;2.78;1.90;;;23.00;58.40;;;;;;10404519;28;20028;-66
2021/06/10 17:17:56;;;;;;;22.55;3.92;;;23.00;58.60;;;;;;10418549;28;20047;-66
2021/06/10 17:22:56;;;;;;;2.75;1.80;;;23.00;58.10;;;;;;10416734;28;20052;-66
2021/06/10 17:27:57;;;;;;;2.80;2.03;;;23.00;58.20;;;;;;10416690;28;20083;-67
2021/06/10 17:32:58;;;;;;;3.55;1.63;;;23.00;58.20;;;;;;10416814;28;20037;-65
2021/06/10 17:37:59;;;;;;;2.70;2.00;;;23.00;58.40;;;;;;10417405;28;20029;-65
2021/06/10 17:42:59;;;;;;;4.03;1.90;;;23.00;58.30;;;;;;10426483;28;20549;-66
2021/06/10 17:48:00;;;;;;;3.22;2.08;;;23.00;58.20;;;;;;10416336;28;20454;-63
2021/06/10 17:53:02;;;;;;;5.57;2.10;;;23.00;58.70;;;;;;10417479;28;20548;-65
2021/06/10 17:58:03;;;;;;;4.47;1.95;;;23.10;58.80;;;;;;10414158;28;20037;-62
2021/06/10 18:03:04;;;;;;;2.78;1.80;;;23.10;59.30;;;;;;10414833;28;20033;-66
2021/06/10 18:08:05;;;;;;;2.40;1.63;;;23.10;58.40;;;;;;10415329;28;20116;-66
2021/06/10 18:13:06;;;;;;;2.03;1.67;;;23.10;58.60;;;;;;10401975;28;20465;-66
2021/06/10 18:18:07;;;;;;;2.10;1.80;;;23.00;58.70;;;;;;10415550;28;20032;-66
2021/06/10 18:23:08;;;;;;;3.83;1.75;;;23.00;58.70;;;;;;10416108;28;20028;-67
2021/06/10 18:28:10;;;;;;;10.15;1.88;;;23.00;58.70;;;;;;10414748;28;20044;-66
2021/06/10 18:33:10;;;;;;;2.85;1.83;;;23.10;58.90;;;;;;10414338;28;20521;-66
2021/06/10 18:38:12;;;;;;;2.70;1.88;;;23.00;58.90;;;;;;10413606;28;20175;-66
2021/06/10 18:43:13;;;;;;;3.33;2.20;;;23.10;59.10;;;;;;10423045;28;20486;-66
2021/06/10 18:48:13;;;;;;;3.15;2.30;;;23.10;59.30;;;;;;10415365;28;20033;-64
2021/06/10 18:53:15;;;;;;;6.28;1.95;;;23.10;59.30;;;;;;10398965;28;20457;-61
2021/06/10 18:58:16;;;;;;;5.65;2.20;;;23.10;59.40;;;;;;10414051;28;20083;-60
2021/06/10 19:03:16;;;;;;;5.32;2.83;;;23.10;59.80;;;;;;10415077;28;20144;-61
2021/06/10 19:08:17;;;;;;;4.65;2.05;;;23.10;59.80;;;;;;10413128;28;20108;-61
2021/06/10 19:13:19;;;;;;;3.58;1.83;;;23.10;59.60;;;;;;10414188;28;20478;-61
2021/06/10 19:18:19;;;;;;;3.05;2.03;;;23.10;59.40;;;;;;10414370;28;20033;-61
2021/06/10 19:23:20;;;;;;;5.47;2.15;;;23.10;59.50;;;;;;10414495;28;20083;-61
2021/06/10 19:28:21;;;;;;;3.53;2.20;;;23.10;59.50;;;;;;10411096;28;20040;-62
2021/06/10 19:33:26;;;;;;;5.68;2.47;;;23.10;59.60;;;;;;10412949;28;20065;-61
2021/06/10 19:38:28;;;;;;;3.92;2.45;;;23.10;59.70;;;;;;10409073;28;20091;-61
2021/06/10 19:43:29;;;;;;;3.50;1.77;;;23.10;59.80;;;;;;10421069;28;20363;-61
2021/06/10 19:48:33;;;;;;;2.67;2.10;;;23.10;59.90;;;;;;10413220;28;20029;-61
2021/06/10 19:53:35;;;;;;;3.78;2.38;;;23.10;59.90;;;;;;10413208;28;20024;-61
2021/06/10 19:58:36;;;;;;;3.85;1.73;;;23.10;60.10;;;;;;10412415;28;20048;-61
2021/06/10 20:03:37;;;;;;;2.88;1.75;;;23.10;60.60;;;;;;10412654;28;20029;-61
2021/06/10 20:08:38;;;;;;;3.45;1.80;;;23.10;60.00;;;;;;10415596;28;20396;-61
2021/06/10 20:13:39;;;;;;;3.13;2.42;;;23.10;60.10;;;;;;10408374;28;20136;-61
2021/06/10 20:18:39;;;;;;;2.85;1.80;;;23.10;60.10;;;;;;10419831;28;20112;-62
2021/06/10 20:23:40;;;;;;;4.55;2.30;;;23.10;60.20;;;;;;10421045;28;20030;-61
2021/06/10 20:34:00;;;;;;;4.88;2.60;;;23.10;60.20;;;;;;10419871;28;20420;-61
2021/06/10 20:39:00;;;;;;;4.35;2.50;;;23.00;60.30;;;;;;10420280;28;20118;-61
2021/06/10 20:44:03;;;;;;;3.00;2.03;;;23.10;60.40;;;;;;10427615;28;20104;-61
2021/06/10 20:49:06;;;;;;;4.15;2.55;;;23.10;60.50;;;;;;10419867;28;20375;-61
2021/06/10 20:54:11;;;;;;;2.70;2.08;;;23.00;60.60;;;;;;10419810;28;20017;-62
2021/06/10 20:59:12;;;;;;;3.17;2.10;;;23.00;60.60;;;;;;10414550;28;20041;-62
2021/06/10 21:04:12;;;;;;;3.20;2.28;;;23.00;60.60;;;;;;10419239;28;20109;-61
2021/06/10 21:09:13;;;;;;;3.38;1.98;;;23.10;60.60;;;;;;10419322;28;20638;-61
2021/06/10 21:14:15;;;;;;;4.18;2.20;;;23.00;60.60;;;;;;10404424;28;20030;-61
2021/06/10 21:19:17;;;;;;;4.22;2.20;;;23.00;60.60;;;;;;10406028;28;20068;-61
2021/06/10 21:24:17;;;;;;;2.95;2.10;;;23.10;61.00;;;;;;10417531;28;20116;-61
2021/06/10 21:29:19;;;;;;;3.55;2.80;;;23.00;60.60;;;;;;10416922;28;20029;-61
2021/06/10 21:34:20;;;;;;;5.00;2.30;;;23.00;60.60;;;;;;10416883;28;20032;-62
2021/06/10 21:39:22;;;;;;;3.53;2.13;;;23.00;60.70;;;;;;10417050;28;20182;-61
2021/06/10 21:44:23;;;;;;;2.70;1.73;;;23.00;60.70;;;;;;10426274;28;20061;-61
2021/06/10 21:49:25;;;;;;;3.72;2.22;;;23.00;60.80;;;;;;10417783;28;20034;-61
2021/06/10 21:54:27;;;;;;;3.42;2.05;;;23.00;60.80;;;;;;10417236;28;20476;-61
2021/06/10 21:59:28;;;;;;;2.85;2.33;;;23.00;60.80;;;;;;10417048;28;20439;-61
2021/06/10 22:04:34;;;;;;;4.38;1.75;;;23.00;60.80;;;;;;10416907;28;20044;-62
2021/06/10 22:09:35;;;;;;;4.18;2.72;;;23.00;60.90;;;;;;10414081;28;20033;-61
2021/06/10 22:14:36;;;;;;;5.00;2.83;;;23.00;60.90;;;;;;10404063;28;20029;-61
2021/06/10 22:19:37;;;;;;;3.90;2.70;;;23.00;60.90;;;;;;10416583;28;20026;-62
2021/06/10 22:24:40;;;;;;;3.65;2.50;;;23.00;60.90;;;;;;10416459;28;20032;-61
2021/06/10 22:29:40;;;;;;;3.80;2.63;;;23.00;60.90;;;;;;10414727;28;20108;-62
2021/06/10 22:34:41;;;;;;;3.40;2.33;;;23.00;61.00;;;;;;10415421;28;20117;-61
2021/06/10 22:39:42;;;;;;;3.22;2.58;;;23.00;61.00;;;;;;10415879;28;20037;-62
2021/06/10 22:44:43;;;;;;;2.88;2.20;;;23.00;61.10;;;;;;10424013;28;20053;-62
2021/06/10 22:49:43;;;;;;;3.40;2.50;;;23.00;61.00;;;;;;10414385;28;20033;-61
2021/06/10 22:54:44;;;;;;;3.38;2.63;;;23.00;61.00;;;;;;10413883;28;20029;-62
2021/06/10 22:59:45;;;;;;;4.75;2.53;;;23.00;61.10;;;;;;10415166;28;20033;-61
2021/06/10 23:04:46;;;;;;;4.18;2.42;;;23.00;61.20;;;;;;10413535;28;20036;-62
2021/06/10 23:09:47;;;;;;;3.10;2.17;;;23.00;61.20;;;;;;10414839;28;20022;-62
2021/06/10 23:14:47;;;;;;;3.45;2.75;;;23.00;61.20;;;;;;10430078;28;20034;-61
2021/06/10 23:19:53;;;;;;;4.43;2.40;;;22.90;61.20;;;;;;10414464;28;20029;-61
2021/06/10 23:24:53;;;;;;;3.60;2.40;;;22.90;61.30;;;;;;10413255;28;20025;-61
2021/06/10 23:29:54;;;;;;;3.30;2.60;;;22.90;61.30;;;;;;10412913;28;20108;-61
2021/06/10 23:34:55;;;;;;;4.00;2.53;;;23.00;61.40;;;;;;10414134;28;20057;-62
2021/06/10 23:39:55;;;;;;;3.55;2.90;;;22.90;61.30;;;;;;10413084;28;20421;-62
2021/06/10 23:44:56;;;;;;;6.40;2.88;;;22.90;61.30;;;;;;10427787;28;20074;-61
2021/06/10 23:49:57;;;;;;;4.95;3.03;;;22.90;61.40;;;;;;10422132;28;20069;-62
2021/06/10 23:54:57;;;;;;;3.60;2.75;;;22.90;61.40;;;;;;10422285;28;20116;-61
2021/06/10 23:59:58;;;;;;;3.90;2.60;;;22.90;61.40;;;;;;10422108;28;20076;-61
